Time;durP1;ratioP1;P1;durP2;ratioP2;P2;SDS_P1;SDS_P2;PMS_P1;PMS_P2;Temp;Humidity;BMP_temperature;BMP_pressure;BME280_temperature;BME280_humidity;BME280_pressure;Samples;Min_cycle;Max_cycle;Signal;HPM_P1;HPM_P2
2022/12/23 00:02:23;;;;;;;22.53;9.63;;;;;;;;;;5014884;28;20460;-83
2022/12/23 00:04:49;;;;;;;13.10;7.80;;;;;;;;;;5014623;28;20434;-87
2022/12/23 00:07:15;;;;;;;19.93;9.17;;;;;;;;;;5014833;28;20417;-85
2022/12/23 00:09:41;;;;;;;17.63;8.47;;;;;;;;;;5014109;28;20779;-87
2022/12/23 00:15:05;;;;;;;15.53;9.30;;;;;;;;;;5014272;28;20408;-87
2022/12/23 00:17:31;;;;;;;21.47;9.33;;;;;;;;;;5014198;28;20533;-87
2022/12/23 00:19:57;;;;;;;15.20;9.00;;;;;;;;;;5013513;28;20415;-86
2022/12/23 00:23:03;;;;;;;16.30;8.37;;;;;;;;;;5014594;28;20481;-86
2022/12/23 00:25:09;;;;;;;16.10;8.57;;;;;;;;;;5014087;28;20420;-88
2022/12/23 00:27:38;;;;;;;13.30;6.93;;;;;;;;;;5014511;28;20425;-88
2022/12/23 00:30:05;;;;;;;16.93;8.70;;;;;;;;;;5014275;28;20438;-84
2022/12/23 00:32:31;;;;;;;12.67;7.83;;;;;;;;;;5010964;28;20780;-84
2022/12/23 00:34:57;;;;;;;18.87;9.10;;;;;;;;;;5013451;28;20419;-83
2022/12/23 00:37:23;;;;;;;26.80;11.17;;;;;;;;;;5013093;28;20453;-85
2022/12/23 00:45:18;;;;;;;19.40;7.80;;;;;;;;;;5013484;28;20406;-84
2022/12/23 00:50:29;;;;;;;21.47;10.23;;;;;;;;;;5012979;28;20785;-87
2022/12/23 00:52:55;;;;;;;17.97;10.17;;;;;;;;;;5012490;28;20420;-84
2022/12/23 00:55:21;;;;;;;16.50;8.23;;;;;;;;;;5012946;28;20904;-85
2022/12/23 00:57:47;;;;;;;16.90;8.47;;;;;;;;;;5012643;28;20982;-84
2022/12/23 01:00:14;;;;;;;13.90;6.50;;;;;;;;;;4972110;28;20434;-84
2022/12/23 01:05:36;;;;;;;10.43;6.77;;;;;;;;;;5012508;28;20413;-84
2022/12/23 01:08:06;;;;;;;15.03;7.77;;;;;;;;;;4992846;28;20396;-85
2022/12/23 01:10:34;;;;;;;12.73;7.13;;;;;;;;;;4992413;28;20454;-83
2022/12/23 01:13:00;;;;;;;14.27;7.67;;;;;;;;;;5012535;28;20778;-83
2022/12/23 01:15:26;;;;;;;11.20;7.10;;;;;;;;;;5012503;28;20409;-83
2022/12/23 01:17:52;;;;;;;12.87;6.80;;;;;;;;;;5012466;28;20479;-83
2022/12/23 01:20:18;;;;;;;13.60;7.73;;;;;;;;;;5009845;28;20412;-83
2022/12/23 01:22:44;;;;;;;13.60;6.53;;;;;;;;;;5012120;28;20755;-83
2022/12/23 01:25:10;;;;;;;17.37;8.47;;;;;;;;;;5009614;28;20452;-84
2022/12/23 01:27:36;;;;;;;12.00;7.60;;;;;;;;;;5011399;28;20457;-84
2022/12/23 01:30:02;;;;;;;16.00;9.53;;;;;;;;;;5012973;28;20783;-86
2022/12/23 01:32:28;;;;;;;13.90;8.10;;;;;;;;;;5011677;28;20433;-85
2022/12/23 01:34:54;;;;;;;16.50;8.03;;;;;;;;;;5014401;28;20778;-85
2022/12/23 01:37:20;;;;;;;11.47;7.80;;;;;;;;;;5012542;28;20476;-86
2022/12/23 01:39:46;;;;;;;15.20;7.97;;;;;;;;;;5011627;28;20431;-86
2022/12/23 01:45:02;;;;;;;18.50;8.60;;;;;;;;;;5013433;28;20813;-87
2022/12/23 01:47:37;;;;;;;11.63;6.03;;;;;;;;;;5013049;28;20414;-87
2022/12/23 01:50:03;;;;;;;14.17;8.07;;;;;;;;;;5012250;28;20780;-87
2022/12/23 01:52:31;;;;;;;17.43;9.90;;;;;;;;;;5013427;28;20415;-88
2022/12/23 01:54:57;;;;;;;18.10;10.80;;;;;;;;;;5013035;28;20419;-87
2022/12/23 01:57:23;;;;;;;18.20;8.40;;;;;;;;;;5013249;28;20462;-87
2022/12/23 02:05:21;;;;;;;13.90;8.63;;;;;;;;;;5012950;28;20421;-87
2022/12/23 02:10:37;;;;;;;17.00;9.57;;;;;;;;;;5013350;28;20839;-86
2022/12/23 02:13:11;;;;;;;19.07;10.57;;;;;;;;;;5012119;28;20512;-87
2022/12/23 02:18:48;;;;;;;18.73;8.80;;;;;;;;;;5002931;28;20461;-86
2022/12/23 02:21:17;;;;;;;19.10;10.30;;;;;;;;;;5004875;28;20403;-86
2022/12/23 02:23:52;;;;;;;19.90;10.23;;;;;;;;;;5001623;28;20413;-87
2022/12/23 02:26:35;;;;;;;15.87;9.73;;;;;;;;;;5000394;28;20403;-86
2022/12/23 02:29:26;;;;;;;14.37;8.67;;;;;;;;;;4961355;28;20470;-86
2022/12/23 02:32:12;;;;;;;20.90;8.30;;;;;;;;;;5002494;28;20839;-86
2022/12/23 02:34:43;;;;;;;18.87;9.50;;;;;;;;;;5002597;28;20406;-86
2022/12/23 02:37:41;;;;;;;14.40;8.50;;;;;;;;;;4999599;28;20466;-86
2022/12/23 02:40:47;;;;;;;21.90;9.40;;;;;;;;;;5003384;28;20416;-86
2022/12/23 02:43:25;;;;;;;16.83;9.03;;;;;;;;;;4992752;28;20543;-85
2022/12/23 02:45:58;;;;;;;16.33;10.13;;;;;;;;;;5000780;28;20444;-85
2022/12/23 02:48:33;;;;;;;20.10;10.63;;;;;;;;;;5008467;28;20420;-86
2022/12/23 02:51:00;;;;;;;19.97;11.67;;;;;;;;;;5014804;28;20438;-86
2022/12/23 02:53:31;;;;;;;21.33;10.20;;;;;;;;;;5001964;28;20410;-86
2022/12/23 02:55:58;;;;;;;21.13;10.73;;;;;;;;;;5004816;28;20505;-86
2022/12/23 02:58:27;;;;;;;16.63;10.13;;;;;;;;;;5004994;28;20481;-85
2022/12/23 03:00:53;;;;;;;20.23;11.30;;;;;;;;;;5010761;28;20486;-85
2022/12/23 03:03:20;;;;;;;19.40;9.73;;;;;;;;;;5007166;28;20421;-86
2022/12/23 03:05:48;;;;;;;25.30;11.37;;;;;;;;;;5006008;28;20838;-84
2022/12/23 03:08:19;;;;;;;18.67;9.87;;;;;;;;;;5003828;28;20419;-85
2022/12/23 03:11:05;;;;;;;22.03;9.97;;;;;;;;;;5005072;28;20407;-86
2022/12/23 03:13:43;;;;;;;19.40;10.30;;;;;;;;;;5018763;28;20435;-85
2022/12/23 03:16:17;;;;;;;20.20;9.00;;;;;;;;;;5004217;28;20454;-85
2022/12/23 03:18:52;;;;;;;22.20;9.27;;;;;;;;;;5003388;28;20568;-85
2022/12/23 03:21:22;;;;;;;20.00;8.00;;;;;;;;;;5004431;28;20466;-85
2022/12/23 03:23:54;;;;;;;16.53;9.77;;;;;;;;;;5003888;28;20780;-85
2022/12/23 03:26:27;;;;;;;20.43;10.90;;;;;;;;;;5003221;28;20466;-84
2022/12/23 03:28:56;;;;;;;19.20;8.73;;;;;;;;;;5010506;28;20790;-85
2022/12/23 03:31:24;;;;;;;17.20;9.50;;;;;;;;;;5004867;28;20423;-86
2022/12/23 03:33:53;;;;;;;16.93;7.17;;;;;;;;;;5003776;28;20419;-89
2022/12/23 03:36:24;;;;;;;13.57;7.90;;;;;;;;;;5012213;28;20439;-87
2022/12/23 03:38:51;;;;;;;14.00;7.90;;;;;;;;;;5013703;28;20837;-87
2022/12/23 03:41:21;;;;;;;18.97;9.73;;;;;;;;;;5015505;28;20751;-88
2022/12/23 03:43:49;;;;;;;16.20;8.30;;;;;;;;;;5014598;28;20857;-87
2022/12/23 03:46:17;;;;;;;17.27;9.03;;;;;;;;;;5014548;28;20428;-88
2022/12/23 03:48:45;;;;;;;18.27;9.87;;;;;;;;;;5015943;28;20416;-87
2022/12/23 03:51:20;;;;;;;19.17;9.67;;;;;;;;;;5014290;28;20414;-87
2022/12/23 03:53:58;;;;;;;19.07;9.90;;;;;;;;;;5014230;28;20416;-87
2022/12/23 03:56:27;;;;;;;14.63;8.63;;;;;;;;;;5013775;28;20523;-87
2022/12/23 03:59:02;;;;;;;18.37;9.33;;;;;;;;;;5015794;28;21058;-87
2022/12/23 04:01:39;;;;;;;12.03;6.97;;;;;;;;;;5015101;28;20412;-88
2022/12/23 04:04:05;;;;;;;15.40;7.87;;;;;;;;;;5014247;28;20427;-88
2022/12/23 04:06:38;;;;;;;13.00;7.70;;;;;;;;;;5014536;28;20470;-89
2022/12/23 04:09:06;;;;;;;15.70;9.20;;;;;;;;;;5015060;28;20423;-87
2022/12/23 04:11:41;;;;;;;17.07;10.00;;;;;;;;;;5014133;28;20987;-90
2022/12/23 04:14:07;;;;;;;17.70;9.70;;;;;;;;;;5014135;28;20452;-88
2022/12/23 04:16:33;;;;;;;16.77;9.50;;;;;;;;;;5015413;28;20431;-87
2022/12/23 04:18:59;;;;;;;13.77;6.77;;;;;;;;;;5013553;28;20558;-87
2022/12/23 04:21:26;;;;;;;17.40;9.90;;;;;;;;;;5015296;28;20508;-88
2022/12/23 04:23:52;;;;;;;18.37;10.00;;;;;;;;;;4973796;28;20449;-87
2022/12/23 04:26:17;;;;;;;20.10;10.00;;;;;;;;;;5015033;28;20424;-88
2022/12/23 04:28:43;;;;;;;16.40;9.17;;;;;;;;;;5013861;28;20947;-86
2022/12/23 04:31:10;;;;;;;19.00;11.40;;;;;;;;;;5019671;28;20455;-89
2022/12/23 04:33:36;;;;;;;18.07;9.13;;;;;;;;;;5015153;28;20416;-86
2022/12/23 04:36:02;;;;;;;14.47;8.30;;;;;;;;;;5014554;28;20412;-87
2022/12/23 04:38:28;;;;;;;19.73;9.73;;;;;;;;;;5014321;28;20990;-87
2022/12/23 04:40:54;;;;;;;16.27;7.30;;;;;;;;;;5014841;28;20431;-87
2022/12/23 04:43:20;;;;;;;15.37;9.17;;;;;;;;;;5013203;28;20472;-87
2022/12/23 04:45:49;;;;;;;15.13;7.67;;;;;;;;;;5013531;28;20437;-87
2022/12/23 04:48:15;;;;;;;15.13;9.03;;;;;;;;;;5014391;28;20426;-86
2022/12/23 04:50:41;;;;;;;16.53;9.17;;;;;;;;;;5014438;28;20437;-86
2022/12/23 04:53:07;;;;;;;16.07;8.47;;;;;;;;;;5012799;28;20590;-86
2022/12/23 04:55:33;;;;;;;18.10;8.43;;;;;;;;;;5013129;28;20985;-87
2022/12/23 04:57:59;;;;;;;16.30;9.40;;;;;;;;;;5013131;28;20596;-88
2022/12/23 05:00:24;;;;;;;19.03;8.03;;;;;;;;;;5013179;28;20426;-88
2022/12/23 05:02:50;;;;;;;14.77;8.90;;;;;;;;;;5013104;28;20838;-87
2022/12/23 05:05:16;;;;;;;16.03;7.97;;;;;;;;;;5014326;28;20901;-87
2022/12/23 05:07:42;;;;;;;11.17;6.70;;;;;;;;;;5012662;28;20955;-87
2022/12/23 05:10:09;;;;;;;11.97;6.33;;;;;;;;;;5014010;28;20418;-87
2022/12/23 05:12:34;;;;;;;18.03;8.10;;;;;;;;;;5012921;28;20435;-88
2022/12/23 05:15:00;;;;;;;17.40;9.50;;;;;;;;;;5014309;28;20496;-87
2022/12/23 05:17:26;;;;;;;13.20;8.03;;;;;;;;;;5012352;28;20897;-87
2022/12/23 05:19:52;;;;;;;17.60;9.30;;;;;;;;;;5013858;28;20443;-86
2022/12/23 05:22:18;;;;;;;12.90;8.50;;;;;;;;;;5012277;28;20535;-86
2022/12/23 05:24:44;;;;;;;16.47;10.90;;;;;;;;;;5012459;28;20877;-86
2022/12/23 05:27:10;;;;;;;20.40;8.97;;;;;;;;;;5013910;28;20427;-86
2022/12/23 05:29:36;;;;;;;21.83;10.40;;;;;;;;;;5013785;28;20424;-88
2022/12/23 05:32:02;;;;;;;19.40;10.30;;;;;;;;;;5014009;28;20429;-86
2022/12/23 05:34:28;;;;;;;15.83;10.23;;;;;;;;;;5013942;28;20910;-87
2022/12/23 05:36:54;;;;;;;14.33;8.47;;;;;;;;;;5013084;28;20427;-88
2022/12/23 05:39:20;;;;;;;18.10;8.27;;;;;;;;;;5012670;28;20428;-86
2022/12/23 05:41:45;;;;;;;18.53;7.57;;;;;;;;;;5011409;28;20796;-86
2022/12/23 05:44:11;;;;;;;15.30;6.90;;;;;;;;;;5011368;28;20470;-87
2022/12/23 05:46:37;;;;;;;11.57;6.57;;;;;;;;;;5013491;28;20420;-87
2022/12/23 05:49:19;;;;;;;12.50;8.60;;;;;;;;;;5013783;28;20428;-93
2022/12/23 05:51:45;;;;;;;17.00;8.47;;;;;;;;;;5012302;28;20433;-88
2022/12/23 05:54:10;;;;;;;20.67;11.10;;;;;;;;;;5012296;28;20438;-79
2022/12/23 05:56:36;;;;;;;23.57;10.60;;;;;;;;;;5013314;28;20416;-82
2022/12/23 05:59:02;;;;;;;20.07;10.97;;;;;;;;;;4974823;28;20466;-87
2022/12/23 06:01:28;;;;;;;22.70;11.43;;;;;;;;;;5013279;28;20422;-82
2022/12/23 06:03:54;;;;;;;18.30;9.60;;;;;;;;;;5012897;28;20503;-80
2022/12/23 06:06:20;;;;;;;19.97;9.17;;;;;;;;;;5013374;28;20405;-82
2022/12/23 06:08:46;;;;;;;18.57;8.37;;;;;;;;;;5012898;28;20423;-80
2022/12/23 06:11:12;;;;;;;15.10;7.83;;;;;;;;;;5013218;28;20451;-80
2022/12/23 06:13:38;;;;;;;16.30;9.10;;;;;;;;;;5013139;28;20843;-79
2022/12/23 06:16:04;;;;;;;16.13;8.43;;;;;;;;;;5013138;28;20456;-79
2022/12/23 06:18:30;;;;;;;18.63;9.10;;;;;;;;;;5013049;28;21034;-79
2022/12/23 06:20:56;;;;;;;17.93;9.77;;;;;;;;;;5011436;28;20419;-79
2022/12/23 06:23:22;;;;;;;15.33;8.20;;;;;;;;;;5012712;28;20410;-79
2022/12/23 06:25:48;;;;;;;16.83;7.90;;;;;;;;;;5013134;28;20486;-79
2022/12/23 06:28:14;;;;;;;16.87;8.57;;;;;;;;;;5012098;28;20411;-80
2022/12/23 06:30:40;;;;;;;16.50;8.27;;;;;;;;;;5016722;28;20909;-80
2022/12/23 06:33:06;;;;;;;15.20;8.93;;;;;;;;;;5017027;28;20473;-79
2022/12/23 06:35:32;;;;;;;17.43;8.03;;;;;;;;;;5016485;28;20407;-79
2022/12/23 06:37:57;;;;;;;17.10;8.53;;;;;;;;;;5016279;28;20470;-79
2022/12/23 06:40:23;;;;;;;25.97;11.90;;;;;;;;;;5016852;28;20443;-79
2022/12/23 06:42:49;;;;;;;30.20;12.50;;;;;;;;;;5016558;28;20468;-79
2022/12/23 06:45:16;;;;;;;24.97;12.17;;;;;;;;;;5016698;28;20416;-79
2022/12/23 06:47:42;;;;;;;38.60;15.47;;;;;;;;;;5015454;28;20432;-79
2022/12/23 06:50:08;;;;;;;31.30;14.63;;;;;;;;;;5013587;28;20417;-79
2022/12/23 06:52:34;;;;;;;34.00;14.67;;;;;;;;;;5010420;28;20793;-80
2022/12/23 06:55:00;;;;;;;31.80;13.83;;;;;;;;;;5006333;28;20405;-79
2022/12/23 06:57:26;;;;;;;23.77;10.77;;;;;;;;;;5005233;28;20458;-79
2022/12/23 06:59:52;;;;;;;32.80;13.53;;;;;;;;;;5004640;28;20449;-79
2022/12/23 07:02:18;;;;;;;32.83;15.10;;;;;;;;;;5006616;28;20420;-79
2022/12/23 07:04:44;;;;;;;35.27;12.87;;;;;;;;;;5005645;28;20642;-79
2022/12/23 07:07:10;;;;;;;41.87;16.20;;;;;;;;;;5010099;28;20518;-80
2022/12/23 07:09:36;;;;;;;32.03;13.37;;;;;;;;;;5006540;28;20418;-80
2022/12/23 07:12:02;;;;;;;34.77;13.97;;;;;;;;;;5004389;28;20420;-80
2022/12/23 07:14:28;;;;;;;35.17;14.60;;;;;;;;;;5004994;28;20462;-79
2022/12/23 07:16:54;;;;;;;38.83;14.90;;;;;;;;;;5006023;28;20507;-80
2022/12/23 07:19:20;;;;;;;31.50;12.73;;;;;;;;;;5004160;28;20425;-80
2022/12/23 07:21:46;;;;;;;37.13;12.63;;;;;;;;;;5004878;28;20416;-79
2022/12/23 07:24:12;;;;;;;37.87;14.30;;;;;;;;;;5005595;28;20411;-80
2022/12/23 07:26:38;;;;;;;46.37;17.43;;;;;;;;;;5018897;28;20427;-80
2022/12/23 07:29:04;;;;;;;35.30;13.50;;;;;;;;;;5020462;28;20425;-79
2022/12/23 07:31:30;;;;;;;41.23;15.67;;;;;;;;;;5005275;28;20422;-79
2022/12/23 07:33:56;;;;;;;35.27;14.40;;;;;;;;;;5003738;28;20420;-80
2022/12/23 07:36:22;;;;;;;41.53;16.20;;;;;;;;;;5005275;28;20414;-79
2022/12/23 07:38:51;;;;;;;37.43;14.87;;;;;;;;;;5004219;28;20532;-78
2022/12/23 07:41:17;;;;;;;29.90;11.93;;;;;;;;;;5020941;28;20409;-79
2022/12/23 07:43:43;;;;;;;40.63;14.17;;;;;;;;;;5004113;28;20475;-80
2022/12/23 07:46:09;;;;;;;40.47;16.80;;;;;;;;;;5019351;28;20943;-79
2022/12/23 07:48:35;;;;;;;41.93;14.47;;;;;;;;;;5005308;28;20431;-80
2022/12/23 07:51:02;;;;;;;37.90;14.37;;;;;;;;;;5018835;28;20421;-82
2022/12/23 07:53:28;;;;;;;35.20;15.47;;;;;;;;;;5003924;28;20425;-79
2022/12/23 07:55:55;;;;;;;33.93;16.47;;;;;;;;;;5005520;28;20461;-79
2022/12/23 07:58:21;;;;;;;41.63;17.10;;;;;;;;;;5003601;28;20580;-79
2022/12/23 08:00:47;;;;;;;44.67;18.33;;;;;;;;;;5004564;28;20404;-80
2022/12/23 08:03:13;;;;;;;35.43;15.57;;;;;;;;;;5005195;28;20455;-79
2022/12/23 08:05:39;;;;;;;41.50;16.00;;;;;;;;;;5003344;28;20420;-79
2022/12/23 08:08:05;;;;;;;35.27;14.17;;;;;;;;;;5004165;28;20420;-78
2022/12/23 08:10:31;;;;;;;39.00;16.30;;;;;;;;;;5004531;28;20399;-79
2022/12/23 08:13:00;;;;;;;39.90;16.83;;;;;;;;;;5002966;28;20786;-79
2022/12/23 08:15:26;;;;;;;36.60;15.20;;;;;;;;;;5011069;28;20434;-79
2022/12/23 08:17:52;;;;;;;39.50;17.50;;;;;;;;;;5004363;28;20471;-78
2022/12/23 08:20:17;;;;;;;32.00;14.37;;;;;;;;;;5002859;28;20463;-78
2022/12/23 08:22:44;;;;;;;29.43;12.50;;;;;;;;;;5003909;28;20916;-79
2022/12/23 08:25:10;;;;;;;44.43;17.37;;;;;;;;;;5004228;28;20404;-79
2022/12/23 08:27:36;;;;;;;42.87;16.43;;;;;;;;;;5009759;28;21040;-78
2022/12/23 08:30:02;;;;;;;40.97;16.60;;;;;;;;;;5004533;28;20400;-79
2022/12/23 08:32:28;;;;;;;40.87;15.77;;;;;;;;;;5003681;28;20925;-78
2022/12/23 08:34:56;;;;;;;35.43;15.43;;;;;;;;;;5002821;28;20970;-79
2022/12/23 08:37:22;;;;;;;32.50;13.00;;;;;;;;;;5002590;28;20459;-78
2022/12/23 08:39:48;;;;;;;44.53;16.83;;;;;;;;;;5003707;28;20919;-78
2022/12/23 08:42:14;;;;;;;44.70;15.80;;;;;;;;;;5004426;28;21030;-79
2022/12/23 08:44:40;;;;;;;39.37;16.47;;;;;;;;;;5002626;28;20938;-78
2022/12/23 08:47:06;;;;;;;38.27;14.87;;;;;;;;;;5010744;28;20515;-78
2022/12/23 08:49:32;;;;;;;39.30;14.13;;;;;;;;;;5003903;28;20949;-78
2022/12/23 08:51:58;;;;;;;42.10;14.40;;;;;;;;;;5001410;28;20436;-78
2022/12/23 08:54:24;;;;;;;36.50;14.00;;;;;;;;;;4998757;28;20426;-78
2022/12/23 08:56:50;;;;;;;41.33;14.77;;;;;;;;;;4994228;28;20421;-79
2022/12/23 08:59:17;;;;;;;38.80;14.87;;;;;;;;;;4995039;28;20485;-78
2022/12/23 09:01:43;;;;;;;40.73;15.13;;;;;;;;;;4997441;28;20417;-79
2022/12/23 09:04:09;;;;;;;41.37;14.30;;;;;;;;;;4994187;28;20445;-78
2022/12/23 09:06:36;;;;;;;47.50;16.60;;;;;;;;;;4992956;28;20911;-78
2022/12/23 09:09:03;;;;;;;50.67;16.07;;;;;;;;;;4994456;28;20417;-79
2022/12/23 09:11:31;;;;;;;35.80;15.03;;;;;;;;;;5001969;28;20451;-79
2022/12/23 09:13:58;;;;;;;38.13;13.73;;;;;;;;;;5005975;28;20421;-78
2022/12/23 09:16:24;;;;;;;46.13;15.43;;;;;;;;;;5001657;28;20428;-79
2022/12/23 09:18:50;;;;;;;35.60;14.97;;;;;;;;;;5003159;28;20517;-78
2022/12/23 09:21:20;;;;;;;43.43;14.27;;;;;;;;;;5000956;28;20412;-77
2022/12/23 09:23:46;;;;;;;36.83;14.70;;;;;;;;;;5007326;28;20765;-78
2022/12/23 09:26:17;;;;;;;45.53;16.03;;;;;;;;;;5002862;28;20408;-78
2022/12/23 09:28:43;;;;;;;39.20;14.07;;;;;;;;;;5002635;28;20409;-78
2022/12/23 09:31:09;;;;;;;36.17;14.03;;;;;;;;;;5010069;28;20833;-78
2022/12/23 09:33:35;;;;;;;42.33;14.03;;;;;;;;;;5001927;28;20413;-78
2022/12/23 09:36:02;;;;;;;30.67;13.07;;;;;;;;;;5001659;28;20413;-79
2022/12/23 09:38:28;;;;;;;32.23;12.17;;;;;;;;;;5017806;28;20525;-78
2022/12/23 09:41:00;;;;;;;36.37;12.80;;;;;;;;;;5016645;28;20436;-78
2022/12/23 09:43:42;;;;;;;30.63;13.40;;;;;;;;;;5000641;28;20466;-79
2022/12/23 09:46:14;;;;;;;28.57;11.20;;;;;;;;;;5001353;28;20439;-78
2022/12/23 09:48:44;;;;;;;29.00;12.43;;;;;;;;;;5002313;28;20842;-78
2022/12/23 09:51:11;;;;;;;28.10;12.53;;;;;;;;;;5006969;28;20416;-78
2022/12/23 09:53:44;;;;;;;23.80;10.77;;;;;;;;;;5012670;28;20459;-78
2022/12/23 09:56:16;;;;;;;30.60;12.63;;;;;;;;;;5012468;28;20428;-78
2022/12/23 09:58:46;;;;;;;22.83;11.00;;;;;;;;;;5011347;28;20481;-79
2022/12/23 10:01:24;;;;;;;28.47;11.40;;;;;;;;;;5028067;28;20958;-78
2022/12/23 10:04:10;;;;;;;22.20;9.60;;;;;;;;;;5011222;28;20455;-79
2022/12/23 10:06:38;;;;;;;21.70;9.27;;;;;;;;;;5012827;28;20477;-79
2022/12/23 10:09:04;;;;;;;24.23;9.87;;;;;;;;;;5013015;28;20417;-79
2022/12/23 10:11:32;;;;;;;25.30;10.97;;;;;;;;;;5012183;28;20464;-78
2022/12/23 10:14:03;;;;;;;18.60;9.20;;;;;;;;;;5028161;28;20432;-79
2022/12/23 10:16:35;;;;;;;23.20;10.30;;;;;;;;;;5012130;28;20423;-79
2022/12/23 10:19:06;;;;;;;22.67;10.67;;;;;;;;;;5012947;28;20471;-79
2022/12/23 10:21:49;;;;;;;22.53;10.30;;;;;;;;;;5012766;28;20409;-79
2022/12/23 10:24:21;;;;;;;27.10;11.90;;;;;;;;;;5013095;28;20424;-78
2022/12/23 10:27:16;;;;;;;19.67;10.17;;;;;;;;;;5013135;28;20469;-78
2022/12/23 10:29:42;;;;;;;18.20;8.40;;;;;;;;;;4999778;28;20439;-78
2022/12/23 10:32:22;;;;;;;20.40;9.60;;;;;;;;;;5028128;28;20421;-78
2022/12/23 10:34:51;;;;;;;18.50;8.33;;;;;;;;;;5028091;28;20417;-78
2022/12/23 10:37:23;;;;;;;21.50;8.40;;;;;;;;;;5027733;28;20556;-78
2022/12/23 10:40:08;;;;;;;23.57;10.47;;;;;;;;;;5028046;28;20524;-79
2022/12/23 10:42:38;;;;;;;32.30;10.47;;;;;;;;;;5027953;28;20455;-78
2022/12/23 10:45:10;;;;;;;18.47;9.03;;;;;;;;;;5012836;28;20777;-78
2022/12/23 10:47:36;;;;;;;24.37;11.07;;;;;;;;;;5024209;28;20428;-78
2022/12/23 10:50:26;;;;;;;23.40;10.87;;;;;;;;;;5015932;28;20436;-78
2022/12/23 10:52:52;;;;;;;17.83;9.77;;;;;;;;;;5001940;28;20186;-78
2022/12/23 10:55:24;;;;;;;24.57;11.30;;;;;;;;;;5010313;28;20423;-78
2022/12/23 10:57:50;;;;;;;20.57;10.00;;;;;;;;;;5011454;28;21012;-78
2022/12/23 11:00:17;;;;;;;18.10;9.10;;;;;;;;;;5010959;28;20448;-78
2022/12/23 11:02:49;;;;;;;21.23;9.00;;;;;;;;;;5011211;28;20419;-78
2022/12/23 11:05:16;;;;;;;17.80;8.93;;;;;;;;;;5010798;28;20420;-79
2022/12/23 11:07:43;;;;;;;18.57;8.33;;;;;;;;;;5012130;28;20420;-79
2022/12/23 11:10:16;;;;;;;20.50;10.53;;;;;;;;;;5012442;28;20819;-78
2022/12/23 11:12:44;;;;;;;16.00;7.50;;;;;;;;;;5011005;28;20413;-78
2022/12/23 11:15:25;;;;;;;21.27;9.43;;;;;;;;;;5013351;28;20499;-78
2022/12/23 11:17:58;;;;;;;21.23;9.73;;;;;;;;;;5014723;28;20486;-80
2022/12/23 11:20:24;;;;;;;21.23;8.90;;;;;;;;;;5014458;28;20457;-79
2022/12/23 11:22:54;;;;;;;20.77;9.67;;;;;;;;;;5015005;28;20436;-78
2022/12/23 11:25:31;;;;;;;20.23;9.47;;;;;;;;;;5016017;28;20514;-79
2022/12/23 11:27:59;;;;;;;17.60;9.03;;;;;;;;;;5015962;28;20417;-79
2022/12/23 11:30:25;;;;;;;19.47;8.80;;;;;;;;;;5015071;28;20417;-79
2022/12/23 11:32:51;;;;;;;15.10;6.87;;;;;;;;;;5014317;28;20412;-79
2022/12/23 11:35:24;;;;;;;15.23;8.20;;;;;;;;;;5014212;28;20413;-79
2022/12/23 11:37:50;;;;;;;16.07;7.67;;;;;;;;;;5014728;28;20470;-79
2022/12/23 11:40:24;;;;;;;15.17;7.50;;;;;;;;;;5014282;28;20420;-79
2022/12/23 11:42:53;;;;;;;14.60;7.23;;;;;;;;;;5015191;28;20825;-78
2022/12/23 11:45:24;;;;;;;15.87;7.93;;;;;;;;;;5006460;28;20423;-79
2022/12/23 11:47:50;;;;;;;17.00;7.77;;;;;;;;;;5006321;28;20833;-79
2022/12/23 11:50:30;;;;;;;20.57;8.20;;;;;;;;;;5012842;28;20424;-79
2022/12/23 11:53:21;;;;;;;21.20;9.20;;;;;;;;;;5012755;28;20868;-80
2022/12/23 11:56:05;;;;;;;15.30;7.23;;;;;;;;;;5015097;28;20856;-80
2022/12/23 11:58:35;;;;;;;18.60;8.27;;;;;;;;;;5013851;28;20489;-79
2022/12/23 12:01:07;;;;;;;14.37;7.40;;;;;;;;;;5013779;28;20459;-79
2022/12/23 12:03:35;;;;;;;18.70;7.43;;;;;;;;;;5013614;28;20410;-78
2022/12/23 12:06:02;;;;;;;19.63;8.60;;;;;;;;;;5014613;28;20492;-79
2022/12/23 12:08:32;;;;;;;18.10;8.30;;;;;;;;;;5014803;28;20432;-79
2022/12/23 12:11:07;;;;;;;21.93;9.20;;;;;;;;;;5014760;28;20417;-79
2022/12/23 12:13:38;;;;;;;16.60;7.70;;;;;;;;;;5014555;28;20804;-79
2022/12/23 12:16:10;;;;;;;14.13;7.37;;;;;;;;;;5013829;28;20852;-79
2022/12/23 12:18:39;;;;;;;15.07;6.77;;;;;;;;;;5013543;28;20486;-79
2022/12/23 12:21:08;;;;;;;18.10;6.77;;;;;;;;;;5014264;28;20795;-79
2022/12/23 12:23:52;;;;;;;19.33;7.80;;;;;;;;;;5012849;28;20416;-79
2022/12/23 12:26:29;;;;;;;17.83;8.40;;;;;;;;;;5013934;28;20883;-80
2022/12/23 12:29:01;;;;;;;17.10;7.57;;;;;;;;;;5013778;28;20441;-79
2022/12/23 12:31:42;;;;;;;18.97;8.53;;;;;;;;;;5014614;28;20408;-80
2022/12/23 12:34:34;;;;;;;17.97;7.20;;;;;;;;;;5013488;28;20441;-80
2022/12/23 12:37:07;;;;;;;12.77;7.43;;;;;;;;;;4991541;28;20426;-79
2022/12/23 12:39:39;;;;;;;19.77;8.57;;;;;;;;;;5014925;28;20771;-79
2022/12/23 12:42:27;;;;;;;16.37;8.47;;;;;;;;;;5013160;28;20410;-79
2022/12/23 12:45:12;;;;;;;14.50;7.93;;;;;;;;;;5014411;28;20414;-79
2022/12/23 12:47:40;;;;;;;17.33;8.37;;;;;;;;;;5013909;28;20414;-80
2022/12/23 12:50:15;;;;;;;18.30;8.77;;;;;;;;;;5013064;28;20772;-79
2022/12/23 12:52:41;;;;;;;16.00;8.37;;;;;;;;;;5013544;28;20489;-79
2022/12/23 12:55:17;;;;;;;12.00;6.43;;;;;;;;;;5014448;28;20828;-79
2022/12/23 12:57:43;;;;;;;17.73;8.00;;;;;;;;;;5014134;28;20479;-79
2022/12/23 13:00:16;;;;;;;16.20;8.87;;;;;;;;;;5014149;28;20425;-79
2022/12/23 13:02:50;;;;;;;17.57;7.77;;;;;;;;;;5013029;28;20453;-79
2022/12/23 13:05:34;;;;;;;25.70;8.10;;;;;;;;;;5012945;28;20438;-79
2022/12/23 13:08:19;;;;;;;16.80;8.20;;;;;;;;;;5012622;28;20476;-80
2022/12/23 13:10:54;;;;;;;13.70;7.83;;;;;;;;;;5014195;28;20440;-80
2022/12/23 13:13:29;;;;;;;17.50;6.93;;;;;;;;;;5014154;28;20464;-79
2022/12/23 13:16:01;;;;;;;16.63;7.67;;;;;;;;;;5013166;28;20429;-79
2022/12/23 13:18:40;;;;;;;15.07;6.60;;;;;;;;;;5013535;28;20485;-79
2022/12/23 13:21:25;;;;;;;17.73;7.73;;;;;;;;;;5012369;28;20456;-79
2022/12/23 13:23:55;;;;;;;15.47;7.03;;;;;;;;;;5011946;28;20446;-79
2022/12/23 13:26:24;;;;;;;16.90;7.47;;;;;;;;;;5012237;28;20511;-80
2022/12/23 13:28:55;;;;;;;12.47;6.17;;;;;;;;;;5013849;28;20499;-79
2022/12/23 13:31:24;;;;;;;12.63;6.87;;;;;;;;;;5013790;28;20434;-78
2022/12/23 13:33:50;;;;;;;15.13;6.90;;;;;;;;;;5012505;28;20421;-79
2022/12/23 13:36:26;;;;;;;16.93;8.23;;;;;;;;;;5012437;28;20457;-80
2022/12/23 13:39:11;;;;;;;12.87;6.67;;;;;;;;;;5012337;28;20471;-79
2022/12/23 13:41:47;;;;;;;16.63;6.70;;;;;;;;;;5014076;28;20413;-80
2022/12/23 13:44:14;;;;;;;16.73;7.37;;;;;;;;;;5012713;28;20479;-79
2022/12/23 13:46:43;;;;;;;13.43;7.10;;;;;;;;;;5013086;28;20424;-80
2022/12/23 13:49:31;;;;;;;18.23;8.87;;;;;;;;;;5012324;28;20428;-80
2022/12/23 13:52:08;;;;;;;15.07;7.27;;;;;;;;;;5012099;28;20471;-80
2022/12/23 13:54:46;;;;;;;15.57;6.70;;;;;;;;;;5011074;28;20411;-80
2022/12/23 13:57:31;;;;;;;14.87;7.03;;;;;;;;;;5005844;28;20423;-80
2022/12/23 14:00:20;;;;;;;17.83;8.27;;;;;;;;;;5002596;28;20426;-79
2022/12/23 14:02:51;;;;;;;13.60;7.00;;;;;;;;;;5009737;28;20422;-80
2022/12/23 14:05:34;;;;;;;15.90;6.90;;;;;;;;;;5006654;28;20420;-79
2022/12/23 14:08:05;;;;;;;18.07;8.03;;;;;;;;;;5018077;28;20408;-80
2022/12/23 14:10:31;;;;;;;15.03;8.20;;;;;;;;;;5007740;28;20418;-79
2022/12/23 14:12:59;;;;;;;17.20;8.53;;;;;;;;;;5001827;28;20412;-79
2022/12/23 14:15:48;;;;;;;15.50;8.47;;;;;;;;;;5007605;28;20945;-79
2022/12/23 14:18:27;;;;;;;16.17;8.90;;;;;;;;;;5000058;28;20473;-80
2022/12/23 14:21:15;;;;;;;15.80;9.17;;;;;;;;;;4999374;28;20779;-80
2022/12/23 14:23:41;;;;;;;16.83;7.77;;;;;;;;;;4993159;28;20424;-80
2022/12/23 14:26:26;;;;;;;18.03;7.30;;;;;;;;;;5008182;28;20421;-80
2022/12/23 14:29:12;;;;;;;15.73;7.57;;;;;;;;;;4995318;28;20428;-79
2022/12/23 14:31:46;;;;;;;13.13;7.47;;;;;;;;;;4981962;28;20406;-80
2022/12/23 14:34:18;;;;;;;16.67;8.30;;;;;;;;;;5011966;28;20416;-80
2022/12/23 14:37:03;;;;;;;15.30;8.23;;;;;;;;;;5010741;28;20435;-80
2022/12/23 14:39:30;;;;;;;16.70;9.60;;;;;;;;;;5012672;28;20962;-79
2022/12/23 14:41:57;;;;;;;15.10;8.10;;;;;;;;;;5027757;28;20467;-79
2022/12/23 14:44:26;;;;;;;16.87;7.87;;;;;;;;;;5012720;28;20417;-80
2022/12/23 14:46:53;;;;;;;14.83;7.20;;;;;;;;;;5027870;28;20952;-79
2022/12/23 14:49:22;;;;;;;15.87;8.80;;;;;;;;;;5012711;28;20424;-79
2022/12/23 14:51:51;;;;;;;14.03;7.97;;;;;;;;;;5015905;28;20492;-79
2022/12/23 14:54:18;;;;;;;18.83;8.00;;;;;;;;;;5030830;28;20424;-80
2022/12/23 14:56:57;;;;;;;15.27;8.33;;;;;;;;;;5009412;28;20472;-79
2022/12/23 14:59:31;;;;;;;14.33;7.70;;;;;;;;;;4995426;28;20509;-79
2022/12/23 15:02:02;;;;;;;20.53;8.73;;;;;;;;;;4995385;28;20429;-80
2022/12/23 15:04:30;;;;;;;15.20;8.67;;;;;;;;;;5003753;28;20432;-79
2022/12/23 15:06:59;;;;;;;18.40;8.80;;;;;;;;;;5015067;28;20429;-78
2022/12/23 15:09:32;;;;;;;16.77;8.50;;;;;;;;;;5015453;28;20426;-79
2022/12/23 15:11:59;;;;;;;24.37;10.03;;;;;;;;;;5014794;28;20459;-79